• Join FlightAware (Why Join?)
  • Login
  • US Flag 
03:11PM EDT


 

Airport Tracker/Info


-or-


 

Live Flight TrackerFlight Track Log ✈ SWA262 ✈ 03-May-2012 ✈ KPHX - KDTW

Flight Track Log - Related Links

Times and Time Zones

All times are in EDT time to prevent confusion due to time zone crossing. See the SWA262 flight status page for this flight to view local times or setup timezone preferences in your user account.

Time Position Orientation Groundspeed Altitude Reporting Facility
EDT Latitude Longitude Course Direction KTS MPH feet Rate Location/Type
06:21PM 33.4333 -112.0500 248° West 182 209 2,200  Level Phoenix TRACON
06:22PM 33.4167 -112.1000 253° West 225 259 3,200 1,500 Climbing Phoenix TRACON
06:23PM 33.4000 -112.1667 168° South 266 306 5,000 2,160 Climbing Phoenix TRACON
06:24PM 33.3333 -112.1500 83° East 274 315 7,600 1,800 Climbing Phoenix TRACON
06:26PM 33.3536 -111.9497 72° East 305 351 10,600 1,440 Climbing Albuquerque Center
06:27PM 33.3875 -111.8222 72° East 333 383 12,200 2,040 Climbing Albuquerque Center
06:28PM 33.4214 -111.6972 74° East 366 421 14,700 2,100 Climbing Albuquerque Center
06:29PM 33.4508 -111.5767 72° East 379 436 16,400 1,800 Climbing Albuquerque Center
06:30PM 33.4844 -111.4489 77° East 384 442 18,400 1,740 Climbing Albuquerque Center
06:31PM 33.5094 -111.3206 81° East 389 448 19,900 1,380 Climbing Albuquerque Center
06:32PM 33.5267 -111.1819 83° East 399 459 21,300 1,500 Climbing Albuquerque Center
06:33PM 33.5414 -111.0406 81° East 410 472 22,900 1,320 Climbing Albuquerque Center
06:34PM 33.5603 -110.8994 71° East 416 479 24,000 1,140 Climbing Albuquerque Center
06:35PM 33.5997 -110.7639 68° East 428 493 25,200 1,140 Climbing Albuquerque Center
06:36PM 33.6361 -110.6558 69° East 428 493 26,300 1,020 Climbing Albuquerque Center
06:37PM 33.6842 -110.5028 68° East 438 504 27,300 1,200 Climbing Albuquerque Center
06:38PM 33.7294 -110.3647 68° East 438 504 28,700 1,140 Climbing Albuquerque Center
06:39PM 33.7744 -110.2289 70° East 443 510 29,600 960 Climbing Albuquerque Center
06:40PM 33.8150 -110.0931 69° East 443 510 30,700 1,020 Climbing Albuquerque Center
06:41PM 33.8578 -109.9594 69° East 438 504 31,700 1,080 Climbing Albuquerque Center
06:42PM 33.9003 -109.8256 69° East 427 491 32,900 600 Climbing Albuquerque Center
06:43PM 33.9425 -109.6942 70° East 422 486 33,000  Climbing Albuquerque Center
06:44PM 33.9847 -109.5575 69° East 427 491 33,000  Level Albuquerque Center
06:45PM 34.0267 -109.4233 70° East 427 491 33,000  Level Albuquerque Center
06:46PM 34.0667 -109.2889 68° East 427 491 33,000  Level Albuquerque Center
06:47PM 34.1103 -109.1569 70° East 427 491 33,000  Level Albuquerque Center
06:48PM 34.1497 -109.0250 69° East 427 491 33,000  Level Albuquerque Center
06:49PM 34.1933 -108.8878 61° Northeast 427 491 33,000  Level Albuquerque Center
06:50PM 34.2511 -108.7606 61° Northeast 422 486 33,000  Level Albuquerque Center
06:51PM 34.3069 -108.6383 60° Northeast 422 486 33,000  Level Albuquerque Center
06:52PM 34.3667 -108.5136 61° Northeast 422 486 33,000  Level Albuquerque Center
06:53PM 34.4283 -108.3783 62° Northeast 416 479 33,000  Level Albuquerque Center
06:54PM 34.4836 -108.2506 59° Northeast 416 479 33,000  Level Albuquerque Center
06:55PM 34.5450 -108.1253 62° Northeast 416 479 33,000  Level Albuquerque Center
06:56PM 34.6000 -107.9994 60° Northeast 416 479 33,000  Level Albuquerque Center
06:57PM 34.6611 -107.8711 60° Northeast 416 479 33,000  Level Albuquerque Center
06:58PM 34.7136 -107.7603 60° Northeast 416 479 33,000  Level Albuquerque Center
06:59PM 34.7786 -107.6217 62° Northeast 416 479 33,000  Level Albuquerque Center
07:00PM 34.8353 -107.4903 61° Northeast 416 479 33,000  Level Albuquerque Center
07:01PM 34.8875 -107.3764 60° Northeast 422 486 33,000  Level Albuquerque Center
07:02PM 34.9522 -107.2369 62° Northeast 422 486 33,000  Level Albuquerque Center
07:03PM 35.0083 -107.1100 62° Northeast 417 480 33,000  Level Albuquerque Center
07:04PM 35.0644 -106.9831 62° Northeast 417 480 33,000  Level Albuquerque Center
07:05PM 35.1161 -106.8661 61° Northeast 417 480 33,000  Level Albuquerque Center
07:06PM 35.1800 -106.7233 61° Northeast 423 487 33,000  Level Albuquerque Center
07:07PM 35.2378 -106.5931 62° Northeast 428 493 33,000  Level Albuquerque Center
07:08PM 35.2892 -106.4756 62° Northeast 440 506 33,000  Level Albuquerque Center
07:09PM 35.3464 -106.3425 61° Northeast 440 506 33,000  Level Albuquerque Center
07:10PM 35.4039 -106.2144 62° Northeast 434 499 33,000  Level Albuquerque Center
07:11PM 35.4669 -106.0708 62° Northeast 436 502 33,000  Level Albuquerque Center
07:12PM 35.5219 -105.9422 60° Northeast 428 493 33,000  Level Albuquerque Center
07:13PM 35.5808 -105.8186 63° Northeast 434 499 33,000  Level Albuquerque Center
07:14PM 35.6356 -105.6872 62° Northeast 439 505 33,000  Level Albuquerque Center
07:15PM 35.6919 -105.5556 62° Northeast 439 505 33,000  Level Albuquerque Center
07:16PM 35.7525 -105.4161 62° Northeast 431 496 33,000  Level Albuquerque Center
07:17PM 35.8086 -105.2842 62° Northeast 436 502 33,000  Level Albuquerque Center
07:18PM 35.8667 -105.1492 63° Northeast 436 502 33,000  Level Albuquerque Center
07:19PM 35.9244 -105.0117 63° Northeast 441 507 33,000  Level Albuquerque Center
07:20PM 35.9742 -104.8894 61° Northeast 441 507 33,000  Level Albuquerque Center
07:21PM 36.0339 -104.7542 62° Northeast 441 507 33,000  Level Albuquerque Center
07:22PM 36.0914 -104.6186 63° Northeast 441 507 33,000  Level Albuquerque Center
07:23PM 36.1467 -104.4828 62° Northeast 441 507 33,000  Level Albuquerque Center
07:24PM 36.2058 -104.3444 64° Northeast 441 507 33,000  Level Albuquerque Center
07:25PM 36.2667 -104.1900 63° Northeast 441 507 33,000  Level Albuquerque Center
07:26PM 36.3233 -104.0511 63° Northeast 447 514 33,000  Level Albuquerque Center
07:27PM 36.3800 -103.9144 62° Northeast 447 514 33,000  Level Albuquerque Center
07:28PM 36.4406 -103.7697 63° Northeast 457 526 33,000  Level Albuquerque Center
07:29PM 36.4986 -103.6250 63° Northeast 457 526 33,000  Level Albuquerque Center
07:30PM 36.5567 -103.4828 63° Northeast 457 526 33,000  Level Albuquerque Center
07:31PM 36.6167 -103.3347 63° Northeast 465 535 33,000  Level Albuquerque Center
07:32PM 36.6761 -103.1867 64° Northeast 473 544 33,000  Level Albuquerque Center
07:33PM 36.7336 -103.0383 63° Northeast 478 550 33,000  Level Albuquerque Center
07:34PM 36.7872 -102.9083 64° Northeast 478 550 33,000  Level Albuquerque Center
07:36PM 36.9033 -102.6083 66° East 497 572 33,000  Level Kansas City Center
07:37PM 36.9519 -102.4731 63° Northeast 479 551 33,000  Level Kansas City Center
07:38PM 37.0169 -102.3133 65° Northeast 469 540 33,000  Level Kansas City Center
07:39PM 37.0722 -102.1678 64° Northeast 469 540 33,000  Level Kansas City Center
07:40PM 37.1297 -102.0225 64° Northeast 469 540 33,000  Level Kansas City Center
07:41PM 37.1794 -101.8917 65° Northeast 469 540 33,000  Level Kansas City Center
07:42PM 37.2394 -101.7306 63° Northeast 469 540 33,000  Level Kansas City Center
07:43PM 37.2986 -101.5819 65° Northeast 464 534 33,000  Level Kansas City Center
07:44PM 37.3531 -101.4356 64° Northeast 464 534 33,000  Level Kansas City Center
07:45PM 37.4047 -101.2992 65° Northeast 472 543 33,000  Level Kansas City Center
07:46PM 37.4664 -101.1319 66° East 472 543 33,000  Level Kansas City Center
07:47PM 37.5206 -100.9794 65° Northeast 479 551 33,000  Level Kansas City Center
07:48PM 37.5742 -100.8372 64° Northeast 485 558 33,000  Level Kansas City Center
07:49PM 37.6394 -100.6644 65° Northeast 494 568 33,000  Level Kansas City Center
07:50PM 37.6953 -100.5142 66° East 482 555 33,000  Level Kansas City Center
07:51PM 37.7439 -100.3761 65° Northeast 475 547 33,000  Level Kansas City Center
07:52PM 37.8061 -100.2075 65° Northeast 475 547 33,000  Level Kansas City Center
07:53PM 37.8614 -100.0564 66° East 475 547 33,000  Level Kansas City Center
07:54PM 37.9094 -99.9178 65° Northeast 475 547 33,000  Level Kansas City Center
07:55PM 37.9642 -99.7664 66° East 475 547 33,000  Level Kansas City Center
07:56PM 38.0236 -99.5964 64° Northeast 475 547 33,000  Level Kansas City Center
07:57PM 38.0800 -99.4472 63° Northeast 475 547 33,000  Level Kansas City Center
07:58PM 38.1406 -99.2931 69° East 475 547 33,000  Level Kansas City Center
07:59PM 38.1861 -99.1425 66° East 475 547 33,000  Level Kansas City Center
08:00PM 38.2400 -98.9872 65° Northeast 475 547 33,000  Level Kansas City Center
08:01PM 38.2958 -98.8319 67° East 475 547 33,000  Level Kansas City Center
08:02PM 38.3494 -98.6736 66° East 475 547 33,000  Level Kansas City Center
08:03PM 38.4025 -98.5228 66° East 470 541 33,000  Level Kansas City Center
08:04PM 38.4556 -98.3667 67° East 475 547 33,000  Level Kansas City Center
08:05PM 38.5017 -98.2283 66° East 470 541 33,000  Level Kansas City Center
08:06PM 38.5567 -98.0717 67° East 475 547 33,000  Level Kansas City Center
08:07PM 38.6069 -97.9175 66° East 475 547 33,000  Level Kansas City Center
08:08PM 38.6614 -97.7578 68° East 475 547 33,000  Level Kansas City Center
08:09PM 38.7092 -97.6028 66° East 475 547 33,000  Level Kansas City Center
08:10PM 38.7700 -97.4244 67° East 475 547 33,000  Level Kansas City Center
08:11PM 38.8217 -97.2692 68° East 475 547 33,000  Level Kansas City Center
08:12PM 38.8711 -97.1111 68° East 475 547 33,000  Level Kansas City Center
08:13PM 38.9181 -96.9633 68° East 475 547 33,000  Level Kansas City Center
08:14PM 38.9669 -96.8047 66° East 475 547 33,000  Level Kansas City Center
08:15PM 39.0286 -96.6278 68° East 482 555 33,000  Level Kansas City Center
08:16PM 39.0794 -96.4633 67° East 497 572 33,000 480 Level Kansas City Center
08:17PM 39.1297 -96.3069 68° East 488 562 34,000 840 Climbing Kansas City Center
08:18PM 39.1800 -96.1500 68° East 475 547 34,700 480 Climbing Kansas City Center
08:19PM 39.2300 -95.9931 68° East 467 537 35,000 120 Climbing Kansas City Center
08:20PM 39.2797 -95.8306 68° East 477 549 35,000  Level Kansas City Center
08:21PM 39.3253 -95.6839 67° East 482 555 35,000  Level Kansas City Center
08:22PM 39.3767 -95.5236 69° East 482 555 35,000  Level Kansas City Center
08:23PM 39.4300 -95.3469 68° East 477 549 35,000  Level Kansas City Center
08:24PM 39.4747 -95.2022 74° East 477 549 35,000  Level Kansas City Center
08:25PM 39.5153 -95.0197 72° East 478 550 35,000  Level Kansas City Center
08:26PM 39.5514 -94.8747 74° East 472 543 35,000  Level Kansas City Center
08:27PM 39.5892 -94.7053 73° East 477 549 35,000  Level Kansas City Center
08:28PM 39.6311 -94.5303 74° East 477 549 35,000  Level Kansas City Center
08:29PM 39.6683 -94.3658 73° East 477 549 35,000  Level Kansas City Center
08:30PM 39.7036 -94.2200 75° East 472 543 35,000  Level Kansas City Center
08:31PM 39.7386 -94.0525 79° East 472 543 35,000  Level Kansas City Center
08:32PM 39.7647 -93.8717 75° East 472 543 35,000  Level Kansas City Center
08:33PM 39.7953 -93.7256 68° East 464 534 35,000  Level Kansas City Center
08:34PM 39.8442 -93.5681 70° East 464 534 35,000  Level Kansas City Center
08:35PM 39.8886 -93.4053 68° East 464 534 35,000  Level Kansas City Center
08:36PM 39.9369 -93.2475 69° East 470 541 35,000  Level Kansas City Center
08:37PM 39.9850 -93.0842 69° East 476 548 35,000  Level Kansas City Center
08:38PM 40.0311 -92.9233 69° East 476 548 35,000  Level Kansas City Center
08:39PM 40.0786 -92.7597 69° East 476 548 35,000  Level Kansas City Center
08:40PM 40.1303 -92.5794 71° East 476 548 35,000  Level Kansas City Center
08:41PM 40.1733 -92.4181 68° East 476 548 35,000  Level Kansas City Center
08:42PM 40.2244 -92.2533 69° East 476 548 35,000  Level Kansas City Center
08:43PM 40.2714 -92.0914 70° East 476 548 35,000  Level Kansas City Center
08:44PM 40.3158 -91.9294 70° East 476 548 35,000  Level Kansas City Center
08:46PM 40.4019 -91.6131 69° East 465 535 35,000  Level Chicago Center
08:47PM 40.4489 -91.4508 70° East 470 541 35,000  Level Chicago Center
08:48PM 40.4933 -91.2856 73° East 470 541 35,000  Level Chicago Center
08:49PM 40.5317 -91.1200 74° East 470 541 35,000  Level Chicago Center
08:50PM 40.5694 -90.9489 75° East 475 547 35,000  Level Chicago Center
08:51PM 40.6031 -90.7803 75° East 475 547 35,000  Level Chicago Center
08:52PM 40.6364 -90.6114 74° East 475 547 35,000  Level Chicago Center
08:53PM 40.6714 -90.4450 75° East 475 547 35,000  Level Chicago Center
08:54PM 40.7061 -90.2783 75° East 475 547 35,000  Level Chicago Center
08:55PM 40.7364 -90.1308 77° East 469 540 35,000  Level Chicago Center
08:56PM 40.7647 -89.9639 79° East 469 540 35,000  Level Chicago Center
08:57PM 40.7883 -89.7997 81° East 464 534 35,000  Level Chicago Center
08:58PM 40.8075 -89.6353 80° East 464 534 35,000  Level Chicago Center
08:59PM 40.8308 -89.4569 82° East 474 545 35,000  Level Chicago Center
09:00PM 40.8475 -89.2922 81° East 469 540 35,000  Level Chicago Center
09:01PM 40.8661 -89.1303 77° East 455 524 35,000  Level Chicago Center
09:03PM 40.9214 -88.8169 67° East 445 512 35,000  Level Chicago Center
09:04PM 40.9767 -88.6431 68° East 444 511 35,000  Level Chicago Center
09:05PM 41.0236 -88.4911 69° East 444 511 35,000  Level Chicago Center
09:06PM 41.0681 -88.3364 69° East 444 511 35,000  Level Chicago Center
09:07PM 41.1125 -88.1842 68° East 444 511 35,000  Level Chicago Center
09:08PM 41.1589 -88.0289 69° East 444 511 35,000  Level Chicago Center
09:09PM 41.2047 -87.8706 69° East 450 518 35,000  Level Chicago Center
09:10PM 41.2506 -87.7150 68° East 450 518 35,000 -180 Level Chicago Center
09:11PM 41.2964 -87.5617 68° East 450 518 34,700 -540 Descending Chicago Center
09:12PM 41.3378 -87.4250 69° East 450 518 34,000 -660 Descending Chicago Center
09:13PM 41.3811 -87.2717 70° East 444 511 33,400 -540 Descending Chicago Center
09:14PM 41.4239 -87.1181 69° East 444 511 33,000 -240 Descending Chicago Center
09:15PM 41.4689 -86.9639 70° East 434 499 33,000  Level Chicago Center
09:16PM 41.5094 -86.8128 67° East 434 499 33,000 -300 Level Chicago Center
09:17PM 41.5561 -86.6636 70° East 434 499 32,400 -780 Descending Chicago Center
09:18PM 41.5981 -86.5064 71° East 434 499 31,500 -1,020 Descending Chicago Center
09:19PM 41.6436 -86.3294 73° East 445 512 30,400 -900 Descending Chicago Center
09:20PM 41.6772 -86.1833 82° East 450 518 29,700 -900 Descending Chicago Center
09:21PM 41.6950 -86.0072 81° East 457 526 28,600 -1,080 Descending Chicago Center
09:22PM 41.7150 -85.8336 83° East 468 539 27,600 -1,020 Descending Chicago Center
09:23PM 41.7303 -85.6631 87° East 468 539 26,600 -600 Descending Chicago Center
09:24PM 41.7414 -85.3619 94° East 439 505 25,900 -600 Descending Cleveland Center
09:25PM 41.7333 -85.2028 92° East 435 501 25,000 -900 Descending Cleveland Center
09:26PM 41.7294 -85.0411 94° East 435 501 24,100 -1,860 Descending Cleveland Center
09:27PM 41.7208 -84.8847 98° East 423 487 21,300 -2,220 Descending Cleveland Center
09:28PM 41.7036 -84.7303 99° East 417 480 19,700 -1,260 Descending Cleveland Center
09:29PM 41.6858 -84.5819 100° East 387 445 18,800 -960 Descending Cleveland Center
09:30PM 41.6675 -84.4444 66° East 367 422 17,800 -1,320 Descending Cleveland Center
09:31PM 41.7094 -84.3189 57° Northeast 349 402 16,200 -1,800 Descending Cleveland Center
09:32PM 41.7517 -84.2322 62° Northeast 369 425 14,700 -1,980 Descending Cleveland Center
09:33PM 41.7972 -84.1153 59° Northeast 357 411 12,700 -1,380 Descending Cleveland Center
09:34PM 41.8486 -84.0008 60° Northeast 316 364 12,000 -420 Descending Cleveland Center
09:35PM 41.9000 -83.8808 56° Northeast 316 364 11,900 -60 Descending Cleveland Center
09:36PM 41.9486 -83.7856 56° Northeast 311 358 11,900  Level Cleveland Center
09:37PM 41.9972 -83.6875 61° Northeast 311 358 12,000  Climbing Cleveland Center
09:38PM 42.0328 -83.5997 73° East 324 373 12,000 -480 Level Cleveland Center
09:39PM 42.0589 -83.4833 73° East 319 367 11,200 -540 Descending Cleveland Center
09:40PM 42.0844 -83.3728 76° East 309 356 11,000 -1,080 Descending Cleveland Center
09:41PM 42.1058 -83.2589 90° East 303 349 9,100 -1,740 Descending Cleveland Center
09:42PM 42.1064 -83.1469 85° East 299 344 7,500 -1,560 Descending Cleveland Center
09:43PM 42.1128 -83.0408 19° North 286 329 6,000 -1,440 Descending Cleveland Center
09:44PM 42.1781 -83.0097 307° West 264 304 4,600 -1,140 Descending Cleveland Center
09:45PM 42.2142 -83.0756 278° West 226 260 3,800 -720 Descending Cleveland Center
09:46PM 42.2208 -83.1397 268° West 192 221 3,300 -720 Descending FAA TRACON SMA TRACON (SMA)
09:47PM 42.2200 -83.1778 269° West 166 191 2,700 -780 Descending FAA TRACON SMA TRACON (SMA)
09:48PM 42.2194 -83.2136 269° West 142 163 2,300 -720 Descending FAA TRACON SMA TRACON (SMA)
09:48PM 42.2189 -83.2478 269° West 136 157 1,800 -780 Descending FAA TRACON SMA TRACON (SMA)